sensor_id;sensor_type;location;lat;lon;timestamp;temperature;humidity
27072;DHT22;14613;46.308;25.288;2022-07-31T00:00:20;21.90;86.80
27072;DHT22;14613;46.308;25.288;2022-07-31T00:02:47;21.80;86.60
27072;DHT22;14613;46.308;25.288;2022-07-31T00:05:13;21.90;86.60
27072;DHT22;14613;46.308;25.288;2022-07-31T00:07:38;21.90;86.60
27072;DHT22;14613;46.308;25.288;2022-07-31T00:10:05;21.90;86.60
27072;DHT22;14613;46.308;25.288;2022-07-31T00:12:32;21.90;86.70
27072;DHT22;14613;46.308;25.288;2022-07-31T00:15:00;21.90;86.70
27072;DHT22;14613;46.308;25.288;2022-07-31T00:17:26;21.90;86.80
27072;DHT22;14613;46.308;25.288;2022-07-31T00:19:52;21.90;86.80
27072;DHT22;14613;46.308;25.288;2022-07-31T00:22:19;22.00;86.90
27072;DHT22;14613;46.308;25.288;2022-07-31T00:24:45;21.90;86.80
27072;DHT22;14613;46.308;25.288;2022-07-31T00:27:11;21.90;86.80
27072;DHT22;14613;46.308;25.288;2022-07-31T00:29:37;22.00;86.80
27072;DHT22;14613;46.308;25.288;2022-07-31T00:32:03;21.90;86.70
27072;DHT22;14613;46.308;25.288;2022-07-31T00:34:29;21.90;86.60
27072;DHT22;14613;46.308;25.288;2022-07-31T00:36:55;21.90;86.80
27072;DHT22;14613;46.308;25.288;2022-07-31T00:39:20;21.80;87.00
27072;DHT22;14613;46.308;25.288;2022-07-31T00:41:49;21.80;87.20
27072;DHT22;14613;46.308;25.288;2022-07-31T00:44:15;21.80;87.50
27072;DHT22;14613;46.308;25.288;2022-07-31T00:46:41;21.80;87.60
27072;DHT22;14613;46.308;25.288;2022-07-31T00:49:08;21.80;87.70
27072;DHT22;14613;46.308;25.288;2022-07-31T00:51:39;21.80;87.60
27072;DHT22;14613;46.308;25.288;2022-07-31T00:54:07;21.80;87.60
27072;DHT22;14613;46.308;25.288;2022-07-31T00:56:33;21.70;87.50
27072;DHT22;14613;46.308;25.288;2022-07-31T00:58:59;21.70;87.60
27072;DHT22;14613;46.308;25.288;2022-07-31T01:01:25;21.70;87.90
27072;DHT22;14613;46.308;25.288;2022-07-31T01:03:52;21.70;88.10
27072;DHT22;14613;46.308;25.288;2022-07-31T01:06:18;21.60;88.30
27072;DHT22;14613;46.308;25.288;2022-07-31T01:08:44;21.60;88.50
27072;DHT22;14613;46.308;25.288;2022-07-31T01:13:44;21.40;89.40
27072;DHT22;14613;46.308;25.288;2022-07-31T01:16:13;21.40;90.00
27072;DHT22;14613;46.308;25.288;2022-07-31T01:18:39;21.40;90.00
27072;DHT22;14613;46.308;25.288;2022-07-31T01:21:10;21.40;90.00
27072;DHT22;14613;46.308;25.288;2022-07-31T01:23:59;21.40;90.10
27072;DHT22;14613;46.308;25.288;2022-07-31T01:26:48;21.40;90.30
27072;DHT22;14613;46.308;25.288;2022-07-31T01:29:29;21.40;90.30
27072;DHT22;14613;46.308;25.288;2022-07-31T01:32:08;21.50;90.20
27072;DHT22;14613;46.308;25.288;2022-07-31T01:37:20;21.60;90.00
27072;DHT22;14613;46.308;25.288;2022-07-31T01:39:53;21.60;89.70
27072;DHT22;14613;46.308;25.288;2022-07-31T01:42:23;21.70;89.30
27072;DHT22;14613;46.308;25.288;2022-07-31T01:44:53;21.70;89.00
27072;DHT22;14613;46.308;25.288;2022-07-31T01:47:20;21.80;89.00
27072;DHT22;14613;46.308;25.288;2022-07-31T01:49:48;21.70;88.70
27072;DHT22;14613;46.308;25.288;2022-07-31T01:52:16;21.80;88.60
27072;DHT22;14613;46.308;25.288;2022-07-31T01:54:43;21.70;88.40
27072;DHT22;14613;46.308;25.288;2022-07-31T01:57:09;21.80;88.40
27072;DHT22;14613;46.308;25.288;2022-07-31T01:59:37;21.70;88.40
27072;DHT22;14613;46.308;25.288;2022-07-31T02:02:03;21.70;88.60
27072;DHT22;14613;46.308;25.288;2022-07-31T02:04:31;21.70;88.70
27072;DHT22;14613;46.308;25.288;2022-07-31T02:06:59;21.70;88.80
27072;DHT22;14613;46.308;25.288;2022-07-31T02:09:26;21.70;88.80
27072;DHT22;14613;46.308;25.288;2022-07-31T02:11:53;21.70;88.70
27072;DHT22;14613;46.308;25.288;2022-07-31T02:14:20;21.70;88.70
27072;DHT22;14613;46.308;25.288;2022-07-31T02:16:47;21.70;89.60
27072;DHT22;14613;46.308;25.288;2022-07-31T02:19:14;21.70;88.80
27072;DHT22;14613;46.308;25.288;2022-07-31T02:21:41;21.70;89.70
27072;DHT22;14613;46.308;25.288;2022-07-31T02:24:07;21.70;88.90
27072;DHT22;14613;46.308;25.288;2022-07-31T02:26:34;21.70;89.00
27072;DHT22;14613;46.308;25.288;2022-07-31T02:29:01;21.70;89.20
27072;DHT22;14613;46.308;25.288;2022-07-31T02:31:30;21.70;90.00
27072;DHT22;14613;46.308;25.288;2022-07-31T02:33:57;21.70;89.30
27072;DHT22;14613;46.308;25.288;2022-07-31T02:36:23;21.70;89.30
27072;DHT22;14613;46.308;25.288;2022-07-31T02:38:51;21.70;89.30
27072;DHT22;14613;46.308;25.288;2022-07-31T02:41:20;21.70;89.20
27072;DHT22;14613;46.308;25.288;2022-07-31T02:43:47;21.70;89.10
27072;DHT22;14613;46.308;25.288;2022-07-31T02:46:13;21.70;89.10
27072;DHT22;14613;46.308;25.288;2022-07-31T02:48:40;21.70;89.00
27072;DHT22;14613;46.308;25.288;2022-07-31T02:51:07;21.70;89.00
27072;DHT22;14613;46.308;25.288;2022-07-31T02:53:33;21.70;89.00
27072;DHT22;14613;46.308;25.288;2022-07-31T02:56:00;21.70;88.90
27072;DHT22;14613;46.308;25.288;2022-07-31T02:58:28;21.70;88.90
27072;DHT22;14613;46.308;25.288;2022-07-31T03:01:03;21.70;88.80
27072;DHT22;14613;46.308;25.288;2022-07-31T03:03:29;21.70;89.00
27072;DHT22;14613;46.308;25.288;2022-07-31T03:05:55;21.70;88.80
27072;DHT22;14613;46.308;25.288;2022-07-31T03:08:21;21.70;88.70
27072;DHT22;14613;46.308;25.288;2022-07-31T03:10:47;21.70;88.70
27072;DHT22;14613;46.308;25.288;2022-07-31T03:13:14;21.70;88.70
27072;DHT22;14613;46.308;25.288;2022-07-31T03:15:41;21.70;88.70
27072;DHT22;14613;46.308;25.288;2022-07-31T03:18:07;21.60;88.70
27072;DHT22;14613;46.308;25.288;2022-07-31T03:20:37;21.60;88.60
27072;DHT22;14613;46.308;25.288;2022-07-31T03:23:04;21.60;88.60
27072;DHT22;14613;46.308;25.288;2022-07-31T03:25:31;21.60;88.70
27072;DHT22;14613;46.308;25.288;2022-07-31T03:27:57;21.60;88.80
27072;DHT22;14613;46.308;25.288;2022-07-31T03:30:25;21.60;88.80
27072;DHT22;14613;46.308;25.288;2022-07-31T03:32:51;21.60;88.90
27072;DHT22;14613;46.308;25.288;2022-07-31T03:35:18;21.50;89.00
27072;DHT22;14613;46.308;25.288;2022-07-31T03:37:44;21.50;89.00
27072;DHT22;14613;46.308;25.288;2022-07-31T03:40:11;21.50;89.20
27072;DHT22;14613;46.308;25.288;2022-07-31T03:42:37;21.50;89.30
27072;DHT22;14613;46.308;25.288;2022-07-31T03:45:03;21.50;89.40
27072;DHT22;14613;46.308;25.288;2022-07-31T03:47:30;21.60;89.60
27072;DHT22;14613;46.308;25.288;2022-07-31T03:49:57;21.60;89.60
27072;DHT22;14613;46.308;25.288;2022-07-31T03:52:25;21.60;89.40
27072;DHT22;14613;46.308;25.288;2022-07-31T03:54:51;21.60;89.40
27072;DHT22;14613;46.308;25.288;2022-07-31T03:57:17;21.70;89.50
27072;DHT22;14613;46.308;25.288;2022-07-31T03:59:45;21.70;89.50
27072;DHT22;14613;46.308;25.288;2022-07-31T04:02:11;21.80;89.60
27072;DHT22;14613;46.308;25.288;2022-07-31T04:04:37;21.80;89.40
27072;DHT22;14613;46.308;25.288;2022-07-31T04:07:06;21.90;89.40
27072;DHT22;14613;46.308;25.288;2022-07-31T04:09:32;21.90;89.40
27072;DHT22;14613;46.308;25.288;2022-07-31T04:11:57;21.90;89.30
27072;DHT22;14613;46.308;25.288;2022-07-31T04:14:23;22.00;89.30
27072;DHT22;14613;46.308;25.288;2022-07-31T04:16:49;22.00;89.10
27072;DHT22;14613;46.308;25.288;2022-07-31T04:19:15;22.00;89.10
27072;DHT22;14613;46.308;25.288;2022-07-31T04:21:40;22.10;89.60
27072;DHT22;14613;46.308;25.288;2022-07-31T04:24:06;22.10;89.00
27072;DHT22;14613;46.308;25.288;2022-07-31T04:26:32;22.10;89.10
27072;DHT22;14613;46.308;25.288;2022-07-31T04:28:58;22.10;89.10
27072;DHT22;14613;46.308;25.288;2022-07-31T04:31:24;22.20;89.10
27072;DHT22;14613;46.308;25.288;2022-07-31T04:33:50;22.20;89.10
27072;DHT22;14613;46.308;25.288;2022-07-31T04:36:16;22.20;89.10
27072;DHT22;14613;46.308;25.288;2022-07-31T04:38:42;22.20;89.00
27072;DHT22;14613;46.308;25.288;2022-07-31T04:41:08;22.30;89.00
27072;DHT22;14613;46.308;25.288;2022-07-31T04:43:33;22.30;88.80
27072;DHT22;14613;46.308;25.288;2022-07-31T04:45:59;22.30;88.80
27072;DHT22;14613;46.308;25.288;2022-07-31T04:48:25;22.30;88.60
27072;DHT22;14613;46.308;25.288;2022-07-31T04:50:50;22.40;88.50
27072;DHT22;14613;46.308;25.288;2022-07-31T04:53:16;22.40;88.50
27072;DHT22;14613;46.308;25.288;2022-07-31T04:55:42;22.40;88.30
27072;DHT22;14613;46.308;25.288;2022-07-31T04:58:27;22.40;88.10
27072;DHT22;14613;46.308;25.288;2022-07-31T05:00:53;22.50;88.10
27072;DHT22;14613;46.308;25.288;2022-07-31T05:03:19;22.50;88.10
27072;DHT22;14613;46.308;25.288;2022-07-31T05:05:44;22.50;87.90
27072;DHT22;14613;46.308;25.288;2022-07-31T05:08:11;22.60;87.80
27072;DHT22;14613;46.308;25.288;2022-07-31T05:10:36;22.60;87.80
27072;DHT22;14613;46.308;25.288;2022-07-31T05:13:21;22.60;87.80
27072;DHT22;14613;46.308;25.288;2022-07-31T05:15:46;22.70;87.80
27072;DHT22;14613;46.308;25.288;2022-07-31T05:18:12;22.70;87.60
27072;DHT22;14613;46.308;25.288;2022-07-31T05:20:38;22.80;87.70
27072;DHT22;14613;46.308;25.288;2022-07-31T05:23:03;22.90;87.80
27072;DHT22;14613;46.308;25.288;2022-07-31T05:25:29;22.90;87.70
27072;DHT22;14613;46.308;25.288;2022-07-31T05:27:55;23.00;87.50
27072;DHT22;14613;46.308;25.288;2022-07-31T05:30:21;23.00;87.30
27072;DHT22;14613;46.308;25.288;2022-07-31T05:32:46;23.00;87.10
27072;DHT22;14613;46.308;25.288;2022-07-31T05:35:12;23.00;86.90
27072;DHT22;14613;46.308;25.288;2022-07-31T05:37:38;23.00;86.90
27072;DHT22;14613;46.308;25.288;2022-07-31T05:40:04;23.10;87.00
27072;DHT22;14613;46.308;25.288;2022-07-31T05:42:30;23.10;87.00
27072;DHT22;14613;46.308;25.288;2022-07-31T05:44:55;23.20;86.90
27072;DHT22;14613;46.308;25.288;2022-07-31T05:47:21;23.20;86.80
27072;DHT22;14613;46.308;25.288;2022-07-31T05:49:47;23.30;86.60
27072;DHT22;14613;46.308;25.288;2022-07-31T05:52:15;23.30;86.50
27072;DHT22;14613;46.308;25.288;2022-07-31T05:54:41;23.30;86.50
27072;DHT22;14613;46.308;25.288;2022-07-31T05:57:06;23.40;86.60
27072;DHT22;14613;46.308;25.288;2022-07-31T05:59:33;23.50;86.60
27072;DHT22;14613;46.308;25.288;2022-07-31T06:01:59;23.50;86.50
27072;DHT22;14613;46.308;25.288;2022-07-31T06:04:25;23.60;86.50
27072;DHT22;14613;46.308;25.288;2022-07-31T06:06:51;23.60;86.30
27072;DHT22;14613;46.308;25.288;2022-07-31T06:09:17;23.70;86.20
27072;DHT22;14613;46.308;25.288;2022-07-31T06:11:42;23.80;85.90
27072;DHT22;14613;46.308;25.288;2022-07-31T06:14:08;23.90;85.60
27072;DHT22;14613;46.308;25.288;2022-07-31T06:16:34;23.90;85.30
27072;DHT22;14613;46.308;25.288;2022-07-31T06:19:00;24.00;85.00
27072;DHT22;14613;46.308;25.288;2022-07-31T06:21:26;24.00;84.80
27072;DHT22;14613;46.308;25.288;2022-07-31T06:23:51;24.10;84.60
27072;DHT22;14613;46.308;25.288;2022-07-31T06:26:17;24.10;84.30
27072;DHT22;14613;46.308;25.288;2022-07-31T06:28:43;24.10;84.00
27072;DHT22;14613;46.308;25.288;2022-07-31T06:31:15;24.20;84.00
27072;DHT22;14613;46.308;25.288;2022-07-31T06:33:41;24.20;84.10
27072;DHT22;14613;46.308;25.288;2022-07-31T06:36:07;24.20;83.80
27072;DHT22;14613;46.308;25.288;2022-07-31T06:38:32;24.20;83.60
27072;DHT22;14613;46.308;25.288;2022-07-31T06:40:58;24.20;83.60
27072;DHT22;14613;46.308;25.288;2022-07-31T06:43:24;24.30;83.40
27072;DHT22;14613;46.308;25.288;2022-07-31T06:45:49;24.30;83.40
27072;DHT22;14613;46.308;25.288;2022-07-31T06:48:15;24.30;83.40
27072;DHT22;14613;46.308;25.288;2022-07-31T06:50:41;24.40;83.40
27072;DHT22;14613;46.308;25.288;2022-07-31T06:53:07;24.40;83.10
27072;DHT22;14613;46.308;25.288;2022-07-31T06:55:32;24.50;83.10
27072;DHT22;14613;46.308;25.288;2022-07-31T06:57:58;24.50;83.00
27072;DHT22;14613;46.308;25.288;2022-07-31T07:00:24;24.50;82.80
27072;DHT22;14613;46.308;25.288;2022-07-31T07:02:49;24.50;82.70
27072;DHT22;14613;46.308;25.288;2022-07-31T07:05:15;24.50;82.40
27072;DHT22;14613;46.308;25.288;2022-07-31T07:07:41;24.50;82.10
27072;DHT22;14613;46.308;25.288;2022-07-31T07:10:07;24.50;81.70
27072;DHT22;14613;46.308;25.288;2022-07-31T07:12:33;24.50;81.60
27072;DHT22;14613;46.308;25.288;2022-07-31T07:14:58;24.40;81.50
27072;DHT22;14613;46.308;25.288;2022-07-31T07:17:24;24.30;81.50
27072;DHT22;14613;46.308;25.288;2022-07-31T07:19:50;24.30;81.60
27072;DHT22;14613;46.308;25.288;2022-07-31T07:22:15;24.30;81.80
27072;DHT22;14613;46.308;25.288;2022-07-31T07:24:42;24.30;81.80
27072;DHT22;14613;46.308;25.288;2022-07-31T07:27:07;24.20;81.70
27072;DHT22;14613;46.308;25.288;2022-07-31T07:29:33;24.20;81.70
27072;DHT22;14613;46.308;25.288;2022-07-31T07:31:59;24.20;81.70
27072;DHT22;14613;46.308;25.288;2022-07-31T07:34:25;24.20;81.60
27072;DHT22;14613;46.308;25.288;2022-07-31T07:36:51;24.20;81.50
27072;DHT22;14613;46.308;25.288;2022-07-31T07:39:18;24.10;81.50
27072;DHT22;14613;46.308;25.288;2022-07-31T07:41:43;24.10;81.60
27072;DHT22;14613;46.308;25.288;2022-07-31T07:44:09;24.00;81.60
27072;DHT22;14613;46.308;25.288;2022-07-31T07:46:35;23.90;81.60
27072;DHT22;14613;46.308;25.288;2022-07-31T07:49:02;24.00;81.60
27072;DHT22;14613;46.308;25.288;2022-07-31T07:51:28;24.00;81.60
27072;DHT22;14613;46.308;25.288;2022-07-31T07:53:54;24.00;81.70
27072;DHT22;14613;46.308;25.288;2022-07-31T07:56:19;23.90;81.60
27072;DHT22;14613;46.308;25.288;2022-07-31T07:58:45;23.90;81.80
27072;DHT22;14613;46.308;25.288;2022-07-31T08:01:13;23.90;82.10
27072;DHT22;14613;46.308;25.288;2022-07-31T08:03:39;23.80;82.40
27072;DHT22;14613;46.308;25.288;2022-07-31T08:06:05;23.70;82.50
27072;DHT22;14613;46.308;25.288;2022-07-31T08:08:30;23.70;82.70
27072;DHT22;14613;46.308;25.288;2022-07-31T08:10:56;23.60;82.80
27072;DHT22;14613;46.308;25.288;2022-07-31T08:13:22;23.60;83.00
27072;DHT22;14613;46.308;25.288;2022-07-31T08:15:48;23.60;83.10
27072;DHT22;14613;46.308;25.288;2022-07-31T08:18:14;23.60;83.10
27072;DHT22;14613;46.308;25.288;2022-07-31T08:20:41;23.60;83.10
27072;DHT22;14613;46.308;25.288;2022-07-31T08:23:07;23.70;83.10
27072;DHT22;14613;46.308;25.288;2022-07-31T08:25:33;23.60;83.00
27072;DHT22;14613;46.308;25.288;2022-07-31T08:27:59;23.70;83.20
27072;DHT22;14613;46.308;25.288;2022-07-31T08:30:24;23.70;83.30
27072;DHT22;14613;46.308;25.288;2022-07-31T08:32:50;23.70;83.40
27072;DHT22;14613;46.308;25.288;2022-07-31T08:35:16;23.70;84.20
27072;DHT22;14613;46.308;25.288;2022-07-31T08:37:42;23.80;83.40
27072;DHT22;14613;46.308;25.288;2022-07-31T08:40:08;23.80;83.60
27072;DHT22;14613;46.308;25.288;2022-07-31T08:42:34;23.90;83.60
27072;DHT22;14613;46.308;25.288;2022-07-31T08:45:05;23.90;83.50
27072;DHT22;14613;46.308;25.288;2022-07-31T08:47:32;24.00;83.50
27072;DHT22;14613;46.308;25.288;2022-07-31T08:50:00;24.00;83.40
27072;DHT22;14613;46.308;25.288;2022-07-31T08:52:29;24.10;83.40
27072;DHT22;14613;46.308;25.288;2022-07-31T08:54:57;24.10;83.40
27072;DHT22;14613;46.308;25.288;2022-07-31T08:57:24;24.10;83.40
27072;DHT22;14613;46.308;25.288;2022-07-31T08:59:51;24.20;83.40
27072;DHT22;14613;46.308;25.288;2022-07-31T09:02:18;24.30;83.30
27072;DHT22;14613;46.308;25.288;2022-07-31T09:04:44;24.30;83.10
27072;DHT22;14613;46.308;25.288;2022-07-31T09:07:14;24.30;82.80
27072;DHT22;14613;46.308;25.288;2022-07-31T09:09:44;24.30;82.80
27072;DHT22;14613;46.308;25.288;2022-07-31T09:12:10;24.30;82.60
27072;DHT22;14613;46.308;25.288;2022-07-31T09:14:36;24.30;82.30
27072;DHT22;14613;46.308;25.288;2022-07-31T09:17:03;24.30;82.20
27072;DHT22;14613;46.308;25.288;2022-07-31T09:19:41;24.20;82.20
27072;DHT22;14613;46.308;25.288;2022-07-31T09:22:24;24.30;82.30
27072;DHT22;14613;46.308;25.288;2022-07-31T09:24:52;24.30;82.10
27072;DHT22;14613;46.308;25.288;2022-07-31T09:27:18;24.30;81.90
27072;DHT22;14613;46.308;25.288;2022-07-31T09:29:46;24.30;81.90
27072;DHT22;14613;46.308;25.288;2022-07-31T09:32:18;24.30;81.90
27072;DHT22;14613;46.308;25.288;2022-07-31T09:34:46;24.30;81.80
27072;DHT22;14613;46.308;25.288;2022-07-31T09:39:40;24.20;81.50
27072;DHT22;14613;46.308;25.288;2022-07-31T09:42:06;24.20;81.70
27072;DHT22;14613;46.308;25.288;2022-07-31T09:44:38;24.30;81.80
27072;DHT22;14613;46.308;25.288;2022-07-31T09:47:04;24.30;81.60
27072;DHT22;14613;46.308;25.288;2022-07-31T09:49:32;24.30;81.30
27072;DHT22;14613;46.308;25.288;2022-07-31T09:51:58;24.40;81.30
27072;DHT22;14613;46.308;25.288;2022-07-31T09:54:27;24.40;81.10
27072;DHT22;14613;46.308;25.288;2022-07-31T09:56:54;24.30;81.00
27072;DHT22;14613;46.308;25.288;2022-07-31T09:59:20;24.40;81.00
27072;DHT22;14613;46.308;25.288;2022-07-31T10:01:47;24.40;81.00
27072;DHT22;14613;46.308;25.288;2022-07-31T10:04:17;24.40;81.00
27072;DHT22;14613;46.308;25.288;2022-07-31T10:06:46;24.50;81.00
27072;DHT22;14613;46.308;25.288;2022-07-31T10:09:13;24.50;81.00
27072;DHT22;14613;46.308;25.288;2022-07-31T10:11:39;24.50;81.00
27072;DHT22;14613;46.308;25.288;2022-07-31T10:14:12;24.60;81.00
27072;DHT22;14613;46.308;25.288;2022-07-31T10:16:41;24.70;81.10
27072;DHT22;14613;46.308;25.288;2022-07-31T10:19:11;24.90;81.20
27072;DHT22;14613;46.308;25.288;2022-07-31T10:21:40;25.10;80.70
27072;DHT22;14613;46.308;25.288;2022-07-31T10:24:06;25.30;80.90
27072;DHT22;14613;46.308;25.288;2022-07-31T10:26:34;25.50;81.10
27072;DHT22;14613;46.308;25.288;2022-07-31T10:29:01;25.80;80.60
27072;DHT22;14613;46.308;25.288;2022-07-31T10:31:27;26.00;79.60
27072;DHT22;14613;46.308;25.288;2022-07-31T10:33:53;26.30;79.00
27072;DHT22;14613;46.308;25.288;2022-07-31T10:36:33;26.60;78.10
27072;DHT22;14613;46.308;25.288;2022-07-31T10:41:47;27.10;76.20
27072;DHT22;14613;46.308;25.288;2022-07-31T10:44:34;27.30;74.80
27072;DHT22;14613;46.308;25.288;2022-07-31T10:47:11;27.40;73.80
27072;DHT22;14613;46.308;25.288;2022-07-31T10:49:47;27.60;73.70
27072;DHT22;14613;46.308;25.288;2022-07-31T10:52:25;27.80;73.40
27072;DHT22;14613;46.308;25.288;2022-07-31T10:54:51;27.90;72.80
27072;DHT22;14613;46.308;25.288;2022-07-31T10:57:32;28.10;72.10
27072;DHT22;14613;46.308;25.288;2022-07-31T11:00:16;28.10;71.40
27072;DHT22;14613;46.308;25.288;2022-07-31T11:02:43;28.10;70.60
27072;DHT22;14613;46.308;25.288;2022-07-31T11:05:20;28.20;70.80
27072;DHT22;14613;46.308;25.288;2022-07-31T11:08:03;28.40;70.30
27072;DHT22;14613;46.308;25.288;2022-07-31T11:10:30;28.60;69.10
27072;DHT22;14613;46.308;25.288;2022-07-31T11:13:04;28.70;68.70
27072;DHT22;14613;46.308;25.288;2022-07-31T11:15:31;28.90;67.10
27072;DHT22;14613;46.308;25.288;2022-07-31T11:17:57;28.90;66.70
27072;DHT22;14613;46.308;25.288;2022-07-31T11:20:26;29.10;66.60
27072;DHT22;14613;46.308;25.288;2022-07-31T11:22:54;29.20;65.90
27072;DHT22;14613;46.308;25.288;2022-07-31T11:25:20;29.40;65.40
27072;DHT22;14613;46.308;25.288;2022-07-31T11:27:48;29.50;64.90
27072;DHT22;14613;46.308;25.288;2022-07-31T11:30:14;29.50;64.20
27072;DHT22;14613;46.308;25.288;2022-07-31T11:32:50;29.50;63.80
27072;DHT22;14613;46.308;25.288;2022-07-31T11:35:27;29.40;63.30
27072;DHT22;14613;46.308;25.288;2022-07-31T11:37:54;29.50;62.60
27072;DHT22;14613;46.308;25.288;2022-07-31T11:40:19;29.60;62.70
27072;DHT22;14613;46.308;25.288;2022-07-31T11:42:45;29.70;62.70
27072;DHT22;14613;46.308;25.288;2022-07-31T11:45:12;29.90;62.50
27072;DHT22;14613;46.308;25.288;2022-07-31T11:47:46;30.00;62.30
27072;DHT22;14613;46.308;25.288;2022-07-31T11:50:13;30.10;61.70
27072;DHT22;14613;46.308;25.288;2022-07-31T11:52:40;30.20;61.50
27072;DHT22;14613;46.308;25.288;2022-07-31T11:55:11;30.20;60.90
27072;DHT22;14613;46.308;25.288;2022-07-31T11:57:38;30.10;60.10
27072;DHT22;14613;46.308;25.288;2022-07-31T12:00:14;30.00;59.90
27072;DHT22;14613;46.308;25.288;2022-07-31T12:02:45;30.00;59.40
27072;DHT22;14613;46.308;25.288;2022-07-31T12:05:12;29.80;59.40
27072;DHT22;14613;46.308;25.288;2022-07-31T12:07:42;29.70;59.60
27072;DHT22;14613;46.308;25.288;2022-07-31T12:10:12;29.60;59.60
27072;DHT22;14613;46.308;25.288;2022-07-31T12:12:39;29.50;59.70
27072;DHT22;14613;46.308;25.288;2022-07-31T12:15:19;29.50;59.70
27072;DHT22;14613;46.308;25.288;2022-07-31T12:17:45;29.30;59.40
27072;DHT22;14613;46.308;25.288;2022-07-31T12:20:12;29.30;59.80
27072;DHT22;14613;46.308;25.288;2022-07-31T12:22:38;29.20;59.70
27072;DHT22;14613;46.308;25.288;2022-07-31T12:25:04;29.20;59.80
27072;DHT22;14613;46.308;25.288;2022-07-31T12:27:34;29.10;59.80
27072;DHT22;14613;46.308;25.288;2022-07-31T12:30:14;29.10;59.80
27072;DHT22;14613;46.308;25.288;2022-07-31T12:32:40;29.10;59.40
27072;DHT22;14613;46.308;25.288;2022-07-31T12:35:06;29.10;59.50
27072;DHT22;14613;46.308;25.288;2022-07-31T12:37:42;29.10;59.50
27072;DHT22;14613;46.308;25.288;2022-07-31T12:40:09;29.10;59.40
27072;DHT22;14613;46.308;25.288;2022-07-31T12:42:45;29.20;59.50
27072;DHT22;14613;46.308;25.288;2022-07-31T12:45:11;29.20;59.40
27072;DHT22;14613;46.308;25.288;2022-07-31T12:47:37;29.20;59.30
27072;DHT22;14613;46.308;25.288;2022-07-31T12:50:02;29.20;59.30
27072;DHT22;14613;46.308;25.288;2022-07-31T12:52:29;29.20;59.20
27072;DHT22;14613;46.308;25.288;2022-07-31T12:54:56;29.20;59.10
27072;DHT22;14613;46.308;25.288;2022-07-31T12:57:22;29.20;59.10
27072;DHT22;14613;46.308;25.288;2022-07-31T12:59:48;29.20;59.10
27072;DHT22;14613;46.308;25.288;2022-07-31T13:02:14;29.20;59.20
27072;DHT22;14613;46.308;25.288;2022-07-31T13:04:40;29.20;59.20
27072;DHT22;14613;46.308;25.288;2022-07-31T13:07:06;29.20;59.20
27072;DHT22;14613;46.308;25.288;2022-07-31T13:09:33;29.30;59.10
27072;DHT22;14613;46.308;25.288;2022-07-31T13:11:59;29.40;59.00
27072;DHT22;14613;46.308;25.288;2022-07-31T13:14:25;29.40;58.70
27072;DHT22;14613;46.308;25.288;2022-07-31T13:16:53;29.50;58.20
27072;DHT22;14613;46.308;25.288;2022-07-31T13:19:19;29.60;58.10
27072;DHT22;14613;46.308;25.288;2022-07-31T13:21:46;29.60;57.80
27072;DHT22;14613;46.308;25.288;2022-07-31T13:24:14;29.60;57.50
27072;DHT22;14613;46.308;25.288;2022-07-31T13:26:40;29.50;57.20
27072;DHT22;14613;46.308;25.288;2022-07-31T13:29:06;29.40;57.20
27072;DHT22;14613;46.308;25.288;2022-07-31T13:31:32;29.20;57.10
27072;DHT22;14613;46.308;25.288;2022-07-31T13:33:58;29.10;57.30
27072;DHT22;14613;46.308;25.288;2022-07-31T13:36:24;29.00;57.30
27072;DHT22;14613;46.308;25.288;2022-07-31T13:38:50;29.00;57.30
27072;DHT22;14613;46.308;25.288;2022-07-31T13:41:16;29.00;57.30
27072;DHT22;14613;46.308;25.288;2022-07-31T13:43:46;29.10;57.50
27072;DHT22;14613;46.308;25.288;2022-07-31T13:46:11;29.10;57.50
27072;DHT22;14613;46.308;25.288;2022-07-31T13:48:37;29.20;57.40
27072;DHT22;14613;46.308;25.288;2022-07-31T13:51:03;29.30;57.40
27072;DHT22;14613;46.308;25.288;2022-07-31T13:53:29;29.40;57.40
27072;DHT22;14613;46.308;25.288;2022-07-31T13:55:55;29.50;57.00
27072;DHT22;14613;46.308;25.288;2022-07-31T13:58:23;29.50;56.40
27072;DHT22;14613;46.308;25.288;2022-07-31T14:00:52;29.60;56.10
27072;DHT22;14613;46.308;25.288;2022-07-31T14:03:17;29.50;56.10
27072;DHT22;14613;46.308;25.288;2022-07-31T14:05:43;29.40;55.90
27072;DHT22;14613;46.308;25.288;2022-07-31T14:08:09;29.40;56.10
27072;DHT22;14613;46.308;25.288;2022-07-31T14:10:35;29.40;56.00
27072;DHT22;14613;46.308;25.288;2022-07-31T14:13:00;29.40;56.00
27072;DHT22;14613;46.308;25.288;2022-07-31T14:15:26;29.40;56.10
27072;DHT22;14613;46.308;25.288;2022-07-31T14:17:52;29.50;56.10
27072;DHT22;14613;46.308;25.288;2022-07-31T14:20:18;29.60;56.10
27072;DHT22;14613;46.308;25.288;2022-07-31T14:22:43;29.60;55.90
27072;DHT22;14613;46.308;25.288;2022-07-31T14:25:10;29.70;55.70
27072;DHT22;14613;46.308;25.288;2022-07-31T14:27:37;29.70;55.20
27072;DHT22;14613;46.308;25.288;2022-07-31T14:30:07;29.70;54.80
27072;DHT22;14613;46.308;25.288;2022-07-31T14:32:33;29.50;54.80
27072;DHT22;14613;46.308;25.288;2022-07-31T14:34:59;29.50;54.90
27072;DHT22;14613;46.308;25.288;2022-07-31T14:37:25;29.50;55.10
27072;DHT22;14613;46.308;25.288;2022-07-31T14:39:50;29.50;55.30
27072;DHT22;14613;46.308;25.288;2022-07-31T14:42:16;29.50;55.50
27072;DHT22;14613;46.308;25.288;2022-07-31T14:44:43;29.50;55.50
27072;DHT22;14613;46.308;25.288;2022-07-31T14:47:09;29.50;55.40
27072;DHT22;14613;46.308;25.288;2022-07-31T14:49:36;29.40;55.20
27072;DHT22;14613;46.308;25.288;2022-07-31T14:52:02;29.40;55.10
27072;DHT22;14613;46.308;25.288;2022-07-31T14:54:28;29.30;54.90
27072;DHT22;14613;46.308;25.288;2022-07-31T14:56:53;29.30;54.90
27072;DHT22;14613;46.308;25.288;2022-07-31T14:59:19;29.30;55.00
27072;DHT22;14613;46.308;25.288;2022-07-31T15:01:45;29.30;55.00
27072;DHT22;14613;46.308;25.288;2022-07-31T15:04:11;29.20;54.80
27072;DHT22;14613;46.308;25.288;2022-07-31T15:06:37;29.20;54.80
27072;DHT22;14613;46.308;25.288;2022-07-31T15:09:03;29.20;54.90
27072;DHT22;14613;46.308;25.288;2022-07-31T15:11:28;29.10;55.00
27072;DHT22;14613;46.308;25.288;2022-07-31T15:13:54;29.00;55.30
27072;DHT22;14613;46.308;25.288;2022-07-31T15:16:20;28.90;55.90
27072;DHT22;14613;46.308;25.288;2022-07-31T15:18:46;28.80;56.30
27072;DHT22;14613;46.308;25.288;2022-07-31T15:21:15;28.70;56.70
27072;DHT22;14613;46.308;25.288;2022-07-31T15:23:41;28.50;57.20
27072;DHT22;14613;46.308;25.288;2022-07-31T15:26:07;28.40;57.60